This is the latest recevied weather packets stored in our database for station/object SA3PJN-WX. If no packets are shown the sender has not sent any weather packets the latest 10 day(s).
| Time | Temp. | Humidity | Pressure | Rain* | Wind** | Luminosity | Snow |
|---|---|---|---|---|---|---|---|
| 1778138229 | 10° C | 57% | 970.8 hPa | - | - | - | - |
| 1778137929 | 9.44° C | 59% | 970.9 hPa | - | - | - | - |
| 1778137629 | 8.89° C | 58% | 970.9 hPa | - | - | - | - |
| 1778137329 | 7.78° C | 58% | 970.7 hPa | - | - | - | - |
| 1778137029 | 7.78° C | 60% | 970.8 hPa | - | - | - | - |
| 1778136729 | 6.67° C | 65% | 970.8 hPa | - | - | - | - |
| 1778136429 | 6.11° C | 62% | 970.5 hPa | - | - | - | - |
| 1778136129 | 6.11° C | 60% | 970.4 hPa | - | - | - | - |
| 1778135829 | 6.67° C | 61% | 970.7 hPa | - | - | - | - |
| 1778135529 | 6.67° C | 64% | 970.6 hPa | - | - | - | - |
| 1778135229 | 5° C | 66% | 970.2 hPa | - | - | - | - |
| 1778134929 | 5.56° C | 66% | 970.3 hPa | - | - | - | - |
| 1778134629 | 5.56° C | 66% | 970.2 hPa | - | - | - | - |
| 1778134329 | 5.56° C | 67% | 970.2 hPa | - | - | - | - |
| 1778134028 | 5° C | 68% | 970.1 hPa | - | - | - | - |
| 1778133729 | 5° C | 67% | 970.2 hPa | - | - | - | - |
| 1778133429 | 5.56° C | 66% | 970.2 hPa | - | - | - | - |
| 1778133098 | 6.11° C | 64% | 970.2 hPa | - | - | - | - |
| 1778132798 | 6.67° C | 64% | 970.4 hPa | - | - | - | - |
| 1778132498 | 6.11° C | 64% | 970.2 hPa | - | - | - | - |
| 1778132198 | 5.56° C | 64% | 970.1 hPa | - | - | - | - |
| 1778131898 | 6.11° C | 64% | 970.6 hPa | - | - | - | - |
| 1778131599 | 6.67° C | 64% | 970.3 hPa | - | - | - | - |
| 1778131298 | 6.11° C | 63% | 970 hPa | - | - | - | - |
| 1778130998 | 6.67° C | 65% | 970.3 hPa | - | - | - | - |
* Rain since midnight (hover to see other rain measurements)
** Current wind speed in m/s (hover to see current wind gust speed)